sensor_id;sensor_type;location;lat;lon;timestamp;pressure;altitude;pressure_sealevel;temperature;humidity
33185;BME280;19550;42.872;25.494;2023-02-03T00:00:25;96476.88;;;1.08;100.00
33185;BME280;19550;42.872;25.494;2023-02-03T00:03:02;96428.06;;;0.79;100.00
33185;BME280;19550;42.872;25.494;2023-02-03T00:05:48;96436.34;;;0.90;100.00
33185;BME280;19550;42.872;25.494;2023-02-03T00:08:16;96433.81;;;0.83;100.00
33185;BME280;19550;42.872;25.494;2023-02-03T00:10:45;96428.88;;;0.80;100.00
33185;BME280;19550;42.872;25.494;2023-02-03T00:13:14;96439.31;;;0.88;100.00
33185;BME280;19550;42.872;25.494;2023-02-03T00:15:43;96431.13;;;0.88;100.00
33185;BME280;19550;42.872;25.494;2023-02-03T00:18:10;96462.94;;;1.04;100.00
33185;BME280;19550;42.872;25.494;2023-02-03T00:20:38;96441.00;;;0.94;100.00
33185;BME280;19550;42.872;25.494;2023-02-03T00:23:07;96458.38;;;1.15;100.00
33185;BME280;19550;42.872;25.494;2023-02-03T00:25:34;96446.94;;;1.13;100.00
33185;BME280;19550;42.872;25.494;2023-02-03T00:28:01;96441.72;;;1.11;100.00
33185;BME280;19550;42.872;25.494;2023-02-03T00:30:29;96470.91;;;1.11;100.00
33185;BME280;19550;42.872;25.494;2023-02-03T00:32:57;96494.66;;;1.42;100.00
33185;BME280;19550;42.872;25.494;2023-02-03T00:35:26;96493.22;;;1.35;100.00
33185;BME280;19550;42.872;25.494;2023-02-03T00:37:54;96446.34;;;1.11;100.00
33185;BME280;19550;42.872;25.494;2023-02-03T00:40:22;96455.19;;;1.23;100.00
33185;BME280;19550;42.872;25.494;2023-02-03T00:42:50;96460.41;;;1.25;100.00
33185;BME280;19550;42.872;25.494;2023-02-03T00:45:17;96481.88;;;1.48;100.00
33185;BME280;19550;42.872;25.494;2023-02-03T00:47:45;96443.81;;;1.36;100.00
33185;BME280;19550;42.872;25.494;2023-02-03T00:50:13;96442.19;;;1.35;100.00
33185;BME280;19550;42.872;25.494;2023-02-03T00:52:40;96435.03;;;1.29;100.00
33185;BME280;19550;42.872;25.494;2023-02-03T00:55:08;96448.50;;;1.41;100.00
33185;BME280;19550;42.872;25.494;2023-02-03T00:57:35;96466.66;;;1.57;100.00
33185;BME280;19550;42.872;25.494;2023-02-03T01:00:02;96437.53;;;1.36;100.00
33185;BME280;19550;42.872;25.494;2023-02-03T01:02:30;96440.53;;;1.34;100.00
33185;BME280;19550;42.872;25.494;2023-02-03T01:04:57;96439.69;;;1.34;100.00
33185;BME280;19550;42.872;25.494;2023-02-03T01:07:26;96455.38;;;1.48;100.00
33185;BME280;19550;42.872;25.494;2023-02-03T01:10:01;96435.16;;;1.44;100.00
33185;BME280;19550;42.872;25.494;2023-02-03T01:12:37;96486.50;;;1.79;100.00
33185;BME280;19550;42.872;25.494;2023-02-03T01:15:30;96426.75;;;1.56;100.00
33185;BME280;19550;42.872;25.494;2023-02-03T01:18:12;96430.06;;;1.58;100.00
33185;BME280;19550;42.872;25.494;2023-02-03T01:20:43;96426.41;;;1.47;100.00
33185;BME280;19550;42.872;25.494;2023-02-03T01:23:11;96450.91;;;1.74;100.00
33185;BME280;19550;42.872;25.494;2023-02-03T01:25:43;96429.75;;;1.54;100.00
33185;BME280;19550;42.872;25.494;2023-02-03T01:28:13;96424.88;;;1.62;100.00
33185;BME280;19550;42.872;25.494;2023-02-03T01:30:40;96431.75;;;1.64;100.00
33185;BME280;19550;42.872;25.494;2023-02-03T01:33:08;96475.25;;;1.76;100.00
33185;BME280;19550;42.872;25.494;2023-02-03T01:35:35;96449.50;;;1.67;100.00
33185;BME280;19550;42.872;25.494;2023-02-03T01:38:02;96455.84;;;1.72;100.00
33185;BME280;19550;42.872;25.494;2023-02-03T01:40:31;96460.19;;;1.73;100.00
33185;BME280;19550;42.872;25.494;2023-02-03T01:42:59;96464.53;;;1.64;100.00
33185;BME280;19550;42.872;25.494;2023-02-03T01:45:26;96493.09;;;1.88;100.00
33185;BME280;19550;42.872;25.494;2023-02-03T01:47:54;96498.06;;;1.96;100.00
33185;BME280;19550;42.872;25.494;2023-02-03T01:50:29;96458.09;;;1.85;100.00
33185;BME280;19550;42.872;25.494;2023-02-03T01:52:59;96472.66;;;1.96;100.00
33185;BME280;19550;42.872;25.494;2023-02-03T01:55:33;96468.81;;;1.92;100.00
33185;BME280;19550;42.872;25.494;2023-02-03T01:58:04;96481.19;;;2.05;100.00
33185;BME280;19550;42.872;25.494;2023-02-03T02:00:33;96482.25;;;2.04;100.00
33185;BME280;19550;42.872;25.494;2023-02-03T02:03:01;96491.81;;;2.06;100.00
33185;BME280;19550;42.872;25.494;2023-02-03T02:05:35;96467.66;;;1.83;100.00
33185;BME280;19550;42.872;25.494;2023-02-03T02:08:07;96461.84;;;1.74;100.00
33185;BME280;19550;42.872;25.494;2023-02-03T02:10:38;96454.44;;;1.70;100.00
33185;BME280;19550;42.872;25.494;2023-02-03T02:13:10;96466.69;;;1.62;100.00
33185;BME280;19550;42.872;25.494;2023-02-03T02:15:50;96462.31;;;1.61;100.00
33185;BME280;19550;42.872;25.494;2023-02-03T02:18:32;96452.66;;;1.48;100.00
33185;BME280;19550;42.872;25.494;2023-02-03T02:21:31;96494.09;;;1.72;100.00
33185;BME280;19550;42.872;25.494;2023-02-03T02:27:27;96505.41;;;1.91;100.00
33185;BME280;19550;42.872;25.494;2023-02-03T02:30:32;96458.47;;;1.57;100.00
33185;BME280;19550;42.872;25.494;2023-02-03T02:33:10;96471.53;;;1.55;100.00
33185;BME280;19550;42.872;25.494;2023-02-03T02:35:49;96461.97;;;1.52;100.00
33185;BME280;19550;42.872;25.494;2023-02-03T02:38:33;96504.41;;;1.65;100.00
33185;BME280;19550;42.872;25.494;2023-02-03T02:41:05;96489.09;;;1.64;100.00
33185;BME280;19550;42.872;25.494;2023-02-03T02:43:39;96513.28;;;1.82;100.00
33185;BME280;19550;42.872;25.494;2023-02-03T02:46:10;96502.66;;;1.86;100.00
33185;BME280;19550;42.872;25.494;2023-02-03T02:48:46;96503.66;;;1.75;100.00
33185;BME280;19550;42.872;25.494;2023-02-03T02:51:15;96520.72;;;1.92;100.00
33185;BME280;19550;42.872;25.494;2023-02-03T02:53:47;96520.16;;;1.90;100.00
33185;BME280;19550;42.872;25.494;2023-02-03T02:56:16;96524.28;;;1.92;100.00
33185;BME280;19550;42.872;25.494;2023-02-03T02:58:45;96512.16;;;1.78;100.00
33185;BME280;19550;42.872;25.494;2023-02-03T03:01:15;96533.25;;;1.88;100.00
33185;BME280;19550;42.872;25.494;2023-02-03T03:03:44;96538.72;;;1.88;100.00
33185;BME280;19550;42.872;25.494;2023-02-03T03:06:14;96545.34;;;1.92;100.00
33185;BME280;19550;42.872;25.494;2023-02-03T03:08:46;96545.03;;;1.93;100.00
33185;BME280;19550;42.872;25.494;2023-02-03T03:11:15;96545.34;;;1.97;100.00
33185;BME280;19550;42.872;25.494;2023-02-03T03:13:46;96557.13;;;1.97;100.00
33185;BME280;19550;42.872;25.494;2023-02-03T03:16:14;96559.28;;;1.95;100.00
33185;BME280;19550;42.872;25.494;2023-02-03T03:18:45;96566.97;;;1.98;100.00
33185;BME280;19550;42.872;25.494;2023-02-03T03:21:16;96563.94;;;2.00;100.00
33185;BME280;19550;42.872;25.494;2023-02-03T03:23:50;96554.91;;;1.99;100.00
33185;BME280;19550;42.872;25.494;2023-02-03T03:26:19;96568.34;;;2.01;100.00
33185;BME280;19550;42.872;25.494;2023-02-03T03:28:50;96560.34;;;1.94;100.00
33185;BME280;19550;42.872;25.494;2023-02-03T03:31:19;96582.31;;;2.05;100.00
33185;BME280;19550;42.872;25.494;2023-02-03T03:33:48;96584.81;;;2.11;100.00
33185;BME280;19550;42.872;25.494;2023-02-03T03:36:23;96585.09;;;2.10;100.00
33185;BME280;19550;42.872;25.494;2023-02-03T03:38:54;96586.72;;;2.11;100.00
33185;BME280;19550;42.872;25.494;2023-02-03T03:41:28;96586.19;;;2.14;100.00
33185;BME280;19550;42.872;25.494;2023-02-03T03:44:01;96585.09;;;2.10;100.00
33185;BME280;19550;42.872;25.494;2023-02-03T03:46:32;96598.25;;;2.13;100.00
33185;BME280;19550;42.872;25.494;2023-02-03T03:49:06;96596.28;;;2.08;100.00
33185;BME280;19550;42.872;25.494;2023-02-03T03:51:39;96599.88;;;2.14;100.00
33185;BME280;19550;42.872;25.494;2023-02-03T03:54:11;96593.88;;;2.17;100.00
33185;BME280;19550;42.872;25.494;2023-02-03T03:56:42;96578.97;;;1.97;100.00
33185;BME280;19550;42.872;25.494;2023-02-03T03:59:13;96582.78;;;1.96;100.00
33185;BME280;19550;42.872;25.494;2023-02-03T04:01:43;96601.47;;;2.10;100.00
33185;BME280;19550;42.872;25.494;2023-02-03T04:04:14;96596.28;;;2.08;100.00
33185;BME280;19550;42.872;25.494;2023-02-03T04:06:42;96582.22;;;1.94;100.00
33185;BME280;19550;42.872;25.494;2023-02-03T04:09:09;96598.16;;;2.03;100.00
33185;BME280;19550;42.872;25.494;2023-02-03T04:11:36;96601.50;;;2.15;100.00
33185;BME280;19550;42.872;25.494;2023-02-03T04:14:21;96618.53;;;2.22;100.00
33185;BME280;19550;42.872;25.494;2023-02-03T04:16:48;96590.56;;;2.15;100.00
33185;BME280;19550;42.872;25.494;2023-02-03T04:19:16;96620.16;;;2.18;100.00
33185;BME280;19550;42.872;25.494;2023-02-03T04:21:43;96616.31;;;2.19;100.00
33185;BME280;19550;42.872;25.494;2023-02-03T04:24:10;96591.25;;;1.95;100.00
33185;BME280;19550;42.872;25.494;2023-02-03T04:26:37;96609.72;;;2.15;100.00
33185;BME280;19550;42.872;25.494;2023-02-03T04:29:04;96611.94;;;2.18;100.00
33185;BME280;19550;42.872;25.494;2023-02-03T04:31:32;96601.22;;;2.11;100.00
33185;BME280;19550;42.872;25.494;2023-02-03T04:34:00;96620.38;;;2.11;100.00
33185;BME280;19550;42.872;25.494;2023-02-03T04:36:28;96621.19;;;2.12;100.00
33185;BME280;19550;42.872;25.494;2023-02-03T04:38:55;96608.03;;;2.09;100.00
33185;BME280;19550;42.872;25.494;2023-02-03T04:41:22;96616.56;;;2.12;100.00
33185;BME280;19550;42.872;25.494;2023-02-03T04:43:49;96627.47;;;2.12;100.00
33185;BME280;19550;42.872;25.494;2023-02-03T04:46:16;96604.91;;;1.95;100.00
33185;BME280;19550;42.872;25.494;2023-02-03T04:48:44;96618.41;;;2.07;100.00
33185;BME280;19550;42.872;25.494;2023-02-03T04:51:11;96604.63;;;1.91;100.00
33185;BME280;19550;42.872;25.494;2023-02-03T04:53:39;96623.31;;;2.05;100.00
33185;BME280;19550;42.872;25.494;2023-02-03T04:56:06;96621.91;;;2.02;100.00
33185;BME280;19550;42.872;25.494;2023-02-03T04:58:34;96605.50;;;1.97;100.00
33185;BME280;19550;42.872;25.494;2023-02-03T05:01:05;96634.03;;;2.11;100.00
33185;BME280;19550;42.872;25.494;2023-02-03T05:03:33;96631.22;;;2.06;100.00
33185;BME280;19550;42.872;25.494;2023-02-03T05:06:00;96635.00;;;2.00;100.00
33185;BME280;19550;42.872;25.494;2023-02-03T05:08:28;96639.97;;;2.03;100.00
33185;BME280;19550;42.872;25.494;2023-02-03T05:10:56;96636.66;;;2.01;100.00
33185;BME280;19550;42.872;25.494;2023-02-03T05:13:24;96648.75;;;2.05;100.00
33185;BME280;19550;42.872;25.494;2023-02-03T05:15:51;96643.31;;;2.10;100.00
33185;BME280;19550;42.872;25.494;2023-02-03T05:18:18;96644.91;;;2.06;100.00
33185;BME280;19550;42.872;25.494;2023-02-03T05:20:45;96648.00;;;2.15;100.00
33185;BME280;19550;42.872;25.494;2023-02-03T05:23:12;96663.25;;;2.06;100.00
33185;BME280;19550;42.872;25.494;2023-02-03T05:25:39;96669.47;;;2.01;100.00
33185;BME280;19550;42.872;25.494;2023-02-03T05:28:08;96658.22;;;1.92;100.00
33185;BME280;19550;42.872;25.494;2023-02-03T05:30:35;96671.56;;;1.89;100.00
33185;BME280;19550;42.872;25.494;2023-02-03T05:33:02;96682.53;;;1.94;100.00
33185;BME280;19550;42.872;25.494;2023-02-03T05:35:29;96683.94;;;1.96;100.00
33185;BME280;19550;42.872;25.494;2023-02-03T05:37:56;96692.09;;;1.91;100.00
33185;BME280;19550;42.872;25.494;2023-02-03T05:40:26;96692.34;;;1.90;100.00
33185;BME280;19550;42.872;25.494;2023-02-03T05:43:12;96687.44;;;1.92;100.00
33185;BME280;19550;42.872;25.494;2023-02-03T05:45:39;96673.16;;;1.85;100.00
33185;BME280;19550;42.872;25.494;2023-02-03T05:48:06;96695.06;;;1.90;100.00
33185;BME280;19550;42.872;25.494;2023-02-03T05:50:34;96693.19;;;1.95;100.00
33185;BME280;19550;42.872;25.494;2023-02-03T05:53:02;96671.25;;;1.85;100.00
33185;BME280;19550;42.872;25.494;2023-02-03T05:55:30;96664.91;;;1.80;100.00
33185;BME280;19550;42.872;25.494;2023-02-03T05:57:58;96658.56;;;1.74;100.00
33185;BME280;19550;42.872;25.494;2023-02-03T06:00:27;96682.03;;;1.97;100.00
33185;BME280;19550;42.872;25.494;2023-02-03T06:02:56;96708.13;;;2.15;100.00
33185;BME280;19550;42.872;25.494;2023-02-03T06:05:23;96713.72;;;2.25;100.00
33185;BME280;19550;42.872;25.494;2023-02-03T06:07:51;96683.06;;;1.91;100.00
33185;BME280;19550;42.872;25.494;2023-02-03T06:10:18;96709.00;;;2.20;100.00
33185;BME280;19550;42.872;25.494;2023-02-03T06:12:45;96708.19;;;2.20;100.00
33185;BME280;19550;42.872;25.494;2023-02-03T06:15:12;96715.84;;;2.18;100.00
33185;BME280;19550;42.872;25.494;2023-02-03T06:17:43;96709.00;;;2.20;100.00
33185;BME280;19550;42.872;25.494;2023-02-03T06:20:11;96717.53;;;2.24;100.00
33185;BME280;19550;42.872;25.494;2023-02-03T06:22:38;96716.44;;;2.25;100.00
33185;BME280;19550;42.872;25.494;2023-02-03T06:25:05;96728.44;;;2.19;100.00
33185;BME280;19550;42.872;25.494;2023-02-03T06:27:32;96732.50;;;2.16;100.00
33185;BME280;19550;42.872;25.494;2023-02-03T06:29:59;96718.00;;;2.16;100.00
33185;BME280;19550;42.872;25.494;2023-02-03T06:32:26;96719.94;;;2.20;100.00
33185;BME280;19550;42.872;25.494;2023-02-03T06:34:55;96708.97;;;2.15;100.00
33185;BME280;19550;42.872;25.494;2023-02-03T06:37:22;96728.97;;;2.21;100.00
33185;BME280;19550;42.872;25.494;2023-02-03T06:39:48;96733.56;;;2.15;100.00
33185;BME280;19550;42.872;25.494;2023-02-03T06:42:15;96742.97;;;2.24;100.00
33185;BME280;19550;42.872;25.494;2023-02-03T06:44:43;96732.00;;;2.19;100.00
33185;BME280;19550;42.872;25.494;2023-02-03T06:47:09;96721.78;;;2.10;100.00
33185;BME280;19550;42.872;25.494;2023-02-03T06:49:36;96737.50;;;2.24;100.00
33185;BME280;19550;42.872;25.494;2023-02-03T06:52:05;96739.69;;;2.27;100.00
33185;BME280;19550;42.872;25.494;2023-02-03T06:54:32;96748.59;;;2.13;100.00
33185;BME280;19550;42.872;25.494;2023-02-03T06:56:59;96757.09;;;2.16;100.00
33185;BME280;19550;42.872;25.494;2023-02-03T06:59:26;96764.22;;;2.17;100.00
33185;BME280;19550;42.872;25.494;2023-02-03T07:01:53;96777.91;;;2.17;100.00
33185;BME280;19550;42.872;25.494;2023-02-03T07:04:20;96762.56;;;2.16;100.00
33185;BME280;19550;42.872;25.494;2023-02-03T07:06:46;96785.16;;;2.07;100.00
33185;BME280;19550;42.872;25.494;2023-02-03T07:09:15;96783.53;;;2.06;100.00
33185;BME280;19550;42.872;25.494;2023-02-03T07:11:42;96788.66;;;2.02;100.00
33185;BME280;19550;42.872;25.494;2023-02-03T07:14:08;96785.72;;;2.09;100.00
33185;BME280;19550;42.872;25.494;2023-02-03T07:16:35;96790.41;;;2.13;100.00
33185;BME280;19550;42.872;25.494;2023-02-03T07:19:02;96789.88;;;2.11;100.00
33185;BME280;19550;42.872;25.494;2023-02-03T07:21:29;96782.16;;;2.08;100.00
33185;BME280;19550;42.872;25.494;2023-02-03T07:23:56;96808.22;;;2.16;100.00
33185;BME280;19550;42.872;25.494;2023-02-03T07:26:28;96805.41;;;2.06;100.00
33185;BME280;19550;42.872;25.494;2023-02-03T07:28:55;96801.06;;;2.10;100.00
33185;BME280;19550;42.872;25.494;2023-02-03T07:31:24;96810.19;;;2.20;100.00
33185;BME280;19550;42.872;25.494;2023-02-03T07:33:51;96811.63;;;2.28;100.00
33185;BME280;19550;42.872;25.494;2023-02-03T07:36:19;96805.13;;;2.34;100.00
33185;BME280;19550;42.872;25.494;2023-02-03T07:38:47;96809.56;;;2.40;100.00
33185;BME280;19550;42.872;25.494;2023-02-03T07:41:13;96776.81;;;2.18;100.00
33185;BME280;19550;42.872;25.494;2023-02-03T07:43:42;96792.59;;;2.38;100.00
33185;BME280;19550;42.872;25.494;2023-02-03T07:46:09;96800.59;;;2.45;100.00
33185;BME280;19550;42.872;25.494;2023-02-03T07:48:35;96813.19;;;2.46;100.00
33185;BME280;19550;42.872;25.494;2023-02-03T07:51:03;96806.94;;;2.50;100.00
33185;BME280;19550;42.872;25.494;2023-02-03T07:53:30;96788.66;;;2.56;100.00
33185;BME280;19550;42.872;25.494;2023-02-03T07:55:59;96796.13;;;2.65;100.00
33185;BME280;19550;42.872;25.494;2023-02-03T07:58:26;96800.94;;;2.85;100.00
33185;BME280;19550;42.872;25.494;2023-02-03T08:00:54;96808.59;;;2.83;100.00
33185;BME280;19550;42.872;25.494;2023-02-03T08:03:21;96809.53;;;2.99;100.00
33185;BME280;19550;42.872;25.494;2023-02-03T08:05:48;96798.69;;;2.77;100.00
33185;BME280;19550;42.872;25.494;2023-02-03T08:08:16;96805.75;;;2.73;100.00
33185;BME280;19550;42.872;25.494;2023-02-03T08:10:43;96806.66;;;2.78;100.00
33185;BME280;19550;42.872;25.494;2023-02-03T08:13:10;96779.94;;;2.59;100.00
33185;BME280;19550;42.872;25.494;2023-02-03T08:15:37;96799.59;;;2.88;100.00
33185;BME280;19550;42.872;25.494;2023-02-03T08:18:16;96804.06;;;2.99;100.00
33185;BME280;19550;42.872;25.494;2023-02-03T08:20:43;96793.97;;;3.04;100.00
33185;BME280;19550;42.872;25.494;2023-02-03T08:23:09;96808.44;;;3.00;100.00
33185;BME280;19550;42.872;25.494;2023-02-03T08:25:36;96803.75;;;2.95;100.00
33185;BME280;19550;42.872;25.494;2023-02-03T08:28:03;96804.22;;;2.87;100.00
33185;BME280;19550;42.872;25.494;2023-02-03T08:30:31;96814.13;;;2.93;100.00
33185;BME280;19550;42.872;25.494;2023-02-03T08:32:58;96786.59;;;2.73;100.00
33185;BME280;19550;42.872;25.494;2023-02-03T08:35:26;96775.66;;;2.73;100.00
33185;BME280;19550;42.872;25.494;2023-02-03T08:37:59;96825.91;;;2.94;100.00
33185;BME280;19550;42.872;25.494;2023-02-03T08:40:42;96821.88;;;3.01;100.00
33185;BME280;19550;42.872;25.494;2023-02-03T08:43:11;96833.28;;;3.25;100.00
33185;BME280;19550;42.872;25.494;2023-02-03T08:45:38;96821.97;;;3.16;100.00
33185;BME280;19550;42.872;25.494;2023-02-03T08:48:06;96836.22;;;3.60;100.00
33185;BME280;19550;42.872;25.494;2023-02-03T08:50:34;96860.41;;;3.74;100.00
33185;BME280;19550;42.872;25.494;2023-02-03T08:53:01;96841.53;;;3.77;100.00
33185;BME280;19550;42.872;25.494;2023-02-03T08:55:28;96859.75;;;3.98;100.00
33185;BME280;19550;42.872;25.494;2023-02-03T08:58:04;96856.38;;;3.86;99.38
33185;BME280;19550;42.872;25.494;2023-02-03T09:00:31;96865.41;;;3.87;100.00
33185;BME280;19550;42.872;25.494;2023-02-03T09:02:58;96870.28;;;3.70;100.00
33185;BME280;19550;42.872;25.494;2023-02-03T09:05:24;96866.63;;;3.59;100.00
33185;BME280;19550;42.872;25.494;2023-02-03T09:07:53;96865.78;;;3.53;100.00
33185;BME280;19550;42.872;25.494;2023-02-03T09:10:20;96867.63;;;3.43;100.00
33185;BME280;19550;42.872;25.494;2023-02-03T09:12:47;96869.28;;;3.39;100.00
33185;BME280;19550;42.872;25.494;2023-02-03T09:15:14;96856.44;;;3.49;100.00
33185;BME280;19550;42.872;25.494;2023-02-03T09:17:41;96877.91;;;3.63;100.00
33185;BME280;19550;42.872;25.494;2023-02-03T09:20:09;96855.38;;;3.50;100.00
33185;BME280;19550;42.872;25.494;2023-02-03T09:22:37;96857.16;;;3.35;100.00
33185;BME280;19550;42.872;25.494;2023-02-03T09:25:06;96874.84;;;3.59;100.00
33185;BME280;19550;42.872;25.494;2023-02-03T09:27:33;96868.50;;;3.48;100.00
33185;BME280;19550;42.872;25.494;2023-02-03T09:30:00;96862.53;;;3.56;100.00
33185;BME280;19550;42.872;25.494;2023-02-03T09:32:27;96863.13;;;3.64;100.00
33185;BME280;19550;42.872;25.494;2023-02-03T09:34:54;96866.25;;;3.87;100.00
33185;BME280;19550;42.872;25.494;2023-02-03T09:37:21;96850.09;;;3.91;100.00
33185;BME280;19550;42.872;25.494;2023-02-03T09:39:48;96861.41;;;4.05;98.39
33185;BME280;19550;42.872;25.494;2023-02-03T09:45:23;96864.69;;;4.07;97.98
33185;BME280;19550;42.872;25.494;2023-02-03T09:47:53;96867.88;;;3.83;98.23
33185;BME280;19550;42.872;25.494;2023-02-03T09:50:24;96861.09;;;3.96;99.41
33185;BME280;19550;42.872;25.494;2023-02-03T09:52:52;96858.25;;;3.76;97.72
33185;BME280;19550;42.872;25.494;2023-02-03T09:55:27;96840.88;;;3.60;98.83
33185;BME280;19550;42.872;25.494;2023-02-03T09:58:03;96858.25;;;3.76;98.35
33185;BME280;19550;42.872;25.494;2023-02-03T10:00:34;96851.94;;;3.75;99.19
33185;BME280;19550;42.872;25.494;2023-02-03T10:03:06;96853.69;;;3.96;98.54
33185;BME280;19550;42.872;25.494;2023-02-03T10:05:50;96852.94;;;4.11;96.94
33185;BME280;19550;42.872;25.494;2023-02-03T10:08:26;96859.00;;;4.18;95.04
33185;BME280;19550;42.872;25.494;2023-02-03T10:11:01;96859.28;;;4.27;94.06
33185;BME280;19550;42.872;25.494;2023-02-03T10:13:44;96844.72;;;4.16;95.40
33185;BME280;19550;42.872;25.494;2023-02-03T10:16:27;96848.78;;;4.04;95.23
33185;BME280;19550;42.872;25.494;2023-02-03T10:18:59;96847.38;;;4.01;94.69
33185;BME280;19550;42.872;25.494;2023-02-03T10:21:34;96848.28;;;4.12;95.32
33185;BME280;19550;42.872;25.494;2023-02-03T10:24:07;96827.19;;;4.32;95.76
33185;BME280;19550;42.872;25.494;2023-02-03T10:26:37;96843.91;;;4.26;94.37
33185;BME280;19550;42.872;25.494;2023-02-03T10:29:15;96844.78;;;4.42;94.27
33185;BME280;19550;42.872;25.494;2023-02-03T10:31:43;96835.13;;;4.19;93.02
33185;BME280;19550;42.872;25.494;2023-02-03T10:34:14;96834.06;;;4.25;94.47
33185;BME280;19550;42.872;25.494;2023-02-03T10:36:51;96834.34;;;4.33;93.93
33185;BME280;19550;42.872;25.494;2023-02-03T10:39:29;96825.56;;;4.36;96.56
33185;BME280;19550;42.872;25.494;2023-02-03T10:41:58;96835.47;;;4.48;93.41
33185;BME280;19550;42.872;25.494;2023-02-03T10:44:32;96837.66;;;4.46;93.60
33185;BME280;19550;42.872;25.494;2023-02-03T10:47:00;96829.97;;;4.53;93.75
33185;BME280;19550;42.872;25.494;2023-02-03T10:49:28;96825.63;;;4.52;93.31
33185;BME280;19550;42.872;25.494;2023-02-03T10:52:00;96811.81;;;4.26;91.60
33185;BME280;19550;42.872;25.494;2023-02-03T10:54:31;96829.72;;;4.54;93.86
33185;BME280;19550;42.872;25.494;2023-02-03T10:57:02;96822.31;;;4.55;92.54
33185;BME280;19550;42.872;25.494;2023-02-03T10:59:33;96834.94;;;4.56;92.47
33185;BME280;19550;42.872;25.494;2023-02-03T11:02:08;96819.25;;;4.46;91.17
33185;BME280;19550;42.872;25.494;2023-02-03T11:04:35;96837.13;;;4.59;93.26
33185;BME280;19550;42.872;25.494;2023-02-03T11:07:04;96837.66;;;4.46;91.46
33185;BME280;19550;42.872;25.494;2023-02-03T11:09:34;96808.28;;;4.41;92.83
33185;BME280;19550;42.872;25.494;2023-02-03T11:12:05;96823.09;;;4.40;91.97
33185;BME280;19550;42.872;25.494;2023-02-03T11:14:39;96819.81;;;4.43;92.95
33185;BME280;19550;42.872;25.494;2023-02-03T11:17:13;96818.44;;;4.30;90.90
33185;BME280;19550;42.872;25.494;2023-02-03T11:19:43;96820.03;;;4.21;90.53
33185;BME280;19550;42.872;25.494;2023-02-03T11:22:12;96812.38;;;4.33;91.89
33185;BME280;19550;42.872;25.494;2023-02-03T11:24:40;96817.34;;;4.47;91.52
33185;BME280;19550;42.872;25.494;2023-02-03T11:27:12;96809.13;;;4.47;91.23
33185;BME280;19550;42.872;25.494;2023-02-03T11:29:44;96803.91;;;4.60;91.00
33185;BME280;19550;42.872;25.494;2023-02-03T11:32:17;96801.72;;;4.67;91.32
33185;BME280;19550;42.872;25.494;2023-02-03T11:34:52;96752.03;;;4.44;90.83
33185;BME280;19550;42.872;25.494;2023-02-03T11:37:31;96799.28;;;4.76;89.71
33185;BME280;19550;42.872;25.494;2023-02-03T11:40:21;96785.28;;;4.83;90.62
33185;BME280;19550;42.872;25.494;2023-02-03T11:42:59;96789.94;;;5.02;90.42
33185;BME280;19550;42.872;25.494;2023-02-03T11:45:29;96780.03;;;5.06;87.96
33185;BME280;19550;42.872;25.494;2023-02-03T11:48:10;96768.22;;;5.16;86.55
33185;BME280;19550;42.872;25.494;2023-02-03T11:50:44;96783.03;;;5.30;89.23
33185;BME280;19550;42.872;25.494;2023-02-03T11:53:39;96776.41;;;5.41;86.88
33185;BME280;19550;42.872;25.494;2023-02-03T11:56:19;96774.47;;;5.47;85.06
33185;BME280;19550;42.872;25.494;2023-02-03T11:59:14;96770.59;;;5.53;85.55
33185;BME280;19550;42.872;25.494;2023-02-03T12:02:06;96764.03;;;5.44;85.33
33185;BME280;19550;42.872;25.494;2023-02-03T12:04:57;96765.69;;;5.45;85.88
33185;BME280;19550;42.872;25.494;2023-02-03T12:07:50;96766.78;;;5.34;85.62
33185;BME280;19550;42.872;25.494;2023-02-03T12:10:40;96768.72;;;5.38;86.08
33185;BME280;19550;42.872;25.494;2023-02-03T12:13:35;96769.06;;;5.11;84.85
33185;BME280;19550;42.872;25.494;2023-02-03T12:16:20;96770.13;;;5.20;85.43
33185;BME280;19550;42.872;25.494;2023-02-03T12:19:05;96769.34;;;5.05;84.70
33185;BME280;19550;42.872;25.494;2023-02-03T12:21:42;96759.44;;;5.04;85.51
33185;BME280;19550;42.872;25.494;2023-02-03T12:24:18;96759.16;;;5.10;84.89
33185;BME280;19550;42.872;25.494;2023-02-03T12:26:55;96755.31;;;5.01;83.84
33185;BME280;19550;42.872;25.494;2023-02-03T12:29:26;96764.94;;;4.94;83.53
33185;BME280;19550;42.872;25.494;2023-02-03T12:32:02;96774.56;;;4.91;83.44
33185;BME280;19550;42.872;25.494;2023-02-03T12:34:36;96766.59;;;4.85;83.56
33185;BME280;19550;42.872;25.494;2023-02-03T12:37:08;96775.09;;;4.68;83.45
33185;BME280;19550;42.872;25.494;2023-02-03T12:39:41;96761.38;;;4.63;84.82
33185;BME280;19550;42.872;25.494;2023-02-03T12:42:14;96773.47;;;4.72;85.23
33185;BME280;19550;42.872;25.494;2023-02-03T12:44:47;96772.91;;;4.60;85.15
33185;BME280;19550;42.872;25.494;2023-02-03T12:47:23;96767.41;;;4.60;85.01
33185;BME280;19550;42.872;25.494;2023-02-03T12:49:56;96768.22;;;4.60;89.70
33185;BME280;19550;42.872;25.494;2023-02-03T12:52:27;96779.47;;;4.54;89.19
33185;BME280;19550;42.872;25.494;2023-02-03T12:55:02;96777.31;;;4.51;88.49
33185;BME280;19550;42.872;25.494;2023-02-03T12:57:35;96776.47;;;4.50;91.09
33185;BME280;19550;42.872;25.494;2023-02-03T13:00:12;96768.78;;;4.42;90.09
33185;BME280;19550;42.872;25.494;2023-02-03T13:02:51;96774.56;;;4.51;89.19
33185;BME280;19550;42.872;25.494;2023-02-03T13:05:27;96776.22;;;4.52;89.20
33185;BME280;19550;42.872;25.494;2023-02-03T13:08:00;96755.91;;;4.58;87.77
33185;BME280;19550;42.872;25.494;2023-02-03T13:10:37;96762.75;;;4.75;87.49
33185;BME280;19550;42.872;25.494;2023-02-03T13:13:12;96765.78;;;4.64;86.38
33185;BME280;19550;42.872;25.494;2023-02-03T13:15:43;96760.84;;;4.76;88.09
33185;BME280;19550;42.872;25.494;2023-02-03T13:18:19;96758.34;;;4.90;86.78